createdAt,value
2023-01-29T00:02:15.863Z,100953.25
2023-01-29T00:04:43.018Z,100954.83
2023-01-29T00:07:10.174Z,100954.52
2023-01-29T00:09:37.342Z,100949.81
2023-01-29T00:12:04.648Z,100950.98
2023-01-29T00:14:31.817Z,100946.29
2023-01-29T00:16:59.114Z,100944.63
2023-01-29T00:19:26.196Z,100942.58
2023-01-29T00:21:53.524Z,100938.69
2023-01-29T00:24:20.768Z,100942.74
2023-01-29T00:26:50.318Z,100943.05
2023-01-29T00:29:18.033Z,100943.63
2023-01-29T00:31:45.922Z,100939.41
2023-01-29T00:34:13.605Z,100930.08
2023-01-29T00:36:40.886Z,100929.23
2023-01-29T00:39:10.956Z,100925.16
2023-01-29T00:41:57.961Z,100921.23
2023-01-29T00:44:44.101Z,100921.27
2023-01-29T00:47:29.984Z,100922.95
2023-01-29T00:49:57.750Z,100920.11
2023-01-29T00:52:24.931Z,100921.48
2023-01-29T00:54:55.572Z,100916.54
2023-01-29T00:57:23.394Z,100916.00
2023-01-29T00:59:50.651Z,100921.88
2023-01-29T01:02:36.494Z,100923.30
2023-01-29T01:05:07.911Z,100932.92
2023-01-29T01:07:35.159Z,100936.23
2023-01-29T01:10:21.035Z,100936.45
2023-01-29T01:12:54.624Z,100933.92
2023-01-29T01:15:24.015Z,100935.83
2023-01-29T01:18:01.296Z,100936.71
2023-01-29T01:20:31.725Z,100934.03
2023-01-29T01:22:58.926Z,100932.23
2023-01-29T01:25:27.440Z,100933.11
2023-01-29T01:27:57.487Z,100937.73
2023-01-29T01:30:24.935Z,100935.61
2023-01-29T01:32:52.236Z,100931.91
2023-01-29T01:35:19.411Z,100930.01
2023-01-29T01:37:46.699Z,100926.58
2023-01-29T01:40:19.448Z,100925.05
2023-01-29T01:42:52.013Z,100922.48
2023-01-29T01:45:22.347Z,100915.15
2023-01-29T01:47:54.657Z,100909.26
2023-01-29T01:50:29.715Z,100908.31
2023-01-29T01:53:05.183Z,100905.29
2023-01-29T01:55:35.123Z,100912.48
2023-01-29T01:58:18.476Z,100911.87
2023-01-29T02:00:45.748Z,100917.73
2023-01-29T02:03:32.297Z,100918.88
2023-01-29T02:06:19.457Z,100912.49
2023-01-29T02:09:18.069Z,100907.55
2023-01-29T02:11:45.376Z,100900.16
2023-01-29T02:14:12.857Z,100902.48
2023-01-29T02:16:40.037Z,100902.08
2023-01-29T02:19:16.862Z,100895.79
2023-01-29T02:21:50.263Z,100892.48
2023-01-29T02:24:36.330Z,100889.13
2023-01-29T02:27:07.780Z,100886.88
2023-01-29T02:29:47.063Z,100886.21
2023-01-29T02:32:22.251Z,100892.56
2023-01-29T02:35:23.680Z,100901.34
2023-01-29T02:38:01.941Z,100886.77
2023-01-29T02:41:07.236Z,100875.41
2023-01-29T02:43:48.369Z,100870.35
2023-01-29T02:46:25.894Z,100870.11
2023-01-29T02:48:59.781Z,100868.43
2023-01-29T02:51:44.138Z,100866.45
2023-01-29T02:54:23.123Z,100864.33
2023-01-29T02:57:14.879Z,100857.82
2023-01-29T02:59:48.453Z,100856.27
2023-01-29T03:02:22.273Z,100842.76
2023-01-29T03:05:00.062Z,100838.36
2023-01-29T03:07:46.972Z,100838.74
2023-01-29T03:10:29.085Z,100838.41
2023-01-29T03:13:21.030Z,100835.80
2023-01-29T03:15:55.067Z,100840.05
2023-01-29T03:19:02.132Z,100845.36
2023-01-29T03:21:57.682Z,100841.07
2023-01-29T03:24:49.468Z,100829.66
2023-01-29T03:27:40.331Z,100823.46
2023-01-29T03:30:31.699Z,100820.23
2023-01-29T03:33:11.447Z,100825.14
2023-01-29T03:35:48.508Z,100821.94
2023-01-29T03:38:16.106Z,100812.27
2023-01-29T03:40:57.937Z,100805.98
2023-01-29T03:43:51.119Z,100796.92
2023-01-29T03:46:44.360Z,100789.32
2023-01-29T03:49:22.055Z,100782.02
2023-01-29T03:51:58.396Z,100781.80
2023-01-29T03:54:41.036Z,100772.55
2023-01-29T03:57:29.977Z,100765.40
2023-01-29T04:00:09.210Z,100771.23
2023-01-29T04:03:26.384Z,100768.16
2023-01-29T04:06:14.015Z,100772.91
2023-01-29T04:09:13.239Z,100771.52
2023-01-29T04:11:48.021Z,100768.92
2023-01-29T04:14:15.732Z,100763.31
2023-01-29T04:16:51.587Z,100769.62
2023-01-29T04:19:39.758Z,100770.96
2023-01-29T04:22:32.707Z,100772.77
2023-01-29T04:25:08.559Z,100770.10
2023-01-29T04:28:07.093Z,100768.63
2023-01-29T04:31:12.359Z,100766.48
2023-01-29T04:33:45.564Z,100767.23
2023-01-29T04:36:31.016Z,100762.46
2023-01-29T04:39:13.812Z,100755.17
2023-01-29T04:41:55.681Z,100748.80
2023-01-29T04:44:34.274Z,100749.59
2023-01-29T04:47:04.048Z,100746.81
2023-01-29T04:49:43.622Z,100743.97
2023-01-29T04:52:29.491Z,100744.66
2023-01-29T04:55:08.952Z,100740.59
2023-01-29T04:57:46.368Z,100735.98
2023-01-29T05:00:16.490Z,100738.03
2023-01-29T05:02:46.001Z,100734.08
2023-01-29T05:05:15.760Z,100729.45
2023-01-29T05:07:44.267Z,100727.39
2023-01-29T05:10:13.539Z,100726.25
2023-01-29T05:12:43.713Z,100725.84
2023-01-29T05:15:17.674Z,100720.48
2023-01-29T05:17:44.937Z,100718.40
2023-01-29T05:20:12.819Z,100716.11
2023-01-29T05:22:41.596Z,100720.55
2023-01-29T05:25:24.762Z,100723.58
2023-01-29T05:28:11.990Z,100731.48
2023-01-29T05:30:40.278Z,100740.58
2023-01-29T05:33:17.341Z,100737.27
2023-01-29T05:35:45.285Z,100728.41
2023-01-29T05:38:13.102Z,100723.44
2023-01-29T05:40:40.353Z,100720.64
2023-01-29T05:43:18.008Z,100715.31
2023-01-29T05:45:53.808Z,100716.39
2023-01-29T05:48:21.035Z,100709.23
2023-01-29T05:50:48.414Z,100707.34
2023-01-29T05:53:15.625Z,100712.04
2023-01-29T05:55:48.812Z,100716.12
2023-01-29T05:58:16.245Z,100720.40
2023-01-29T06:00:43.445Z,100730.14
2023-01-29T06:03:10.704Z,100740.77
2023-01-29T06:05:38.666Z,100745.85
2023-01-29T06:08:07.300Z,100743.99
2023-01-29T06:10:34.886Z,100740.30
2023-01-29T06:13:02.113Z,100735.77
2023-01-29T06:15:29.321Z,100734.67
2023-01-29T06:17:57.319Z,100739.21
2023-01-29T06:20:25.188Z,100737.67
2023-01-29T06:22:52.438Z,100736.80
2023-01-29T06:25:19.560Z,100737.41
2023-01-29T06:27:46.781Z,100733.28
2023-01-29T06:30:14.647Z,100737.42
2023-01-29T06:32:42.078Z,100744.16
2023-01-29T06:35:10.381Z,100746.58
2023-01-29T06:37:37.611Z,100744.95
2023-01-29T06:40:05.247Z,100739.52
2023-01-29T06:42:32.473Z,100736.37
2023-01-29T06:44:59.629Z,100732.08
2023-01-29T06:47:27.701Z,100737.82
2023-01-29T06:49:55.157Z,100744.84
2023-01-29T06:52:22.261Z,100745.38
2023-01-29T06:54:49.508Z,100745.02
2023-01-29T06:57:16.683Z,100744.41
2023-01-29T06:59:43.908Z,100735.56
2023-01-29T07:02:11.243Z,100737.48
2023-01-29T07:04:39.345Z,100739.91
2023-01-29T07:07:12.916Z,100745.94
2023-01-29T07:09:41.914Z,100742.19
2023-01-29T07:12:11.723Z,100736.12
2023-01-29T07:14:38.872Z,100730.62
2023-01-29T07:17:05.947Z,100724.69
2023-01-29T07:19:33.178Z,100723.80
2023-01-29T07:22:02.620Z,100724.14
2023-01-29T07:24:30.032Z,100719.15
2023-01-29T07:26:57.263Z,100716.25
2023-01-29T07:29:24.452Z,100714.34
2023-01-29T07:31:51.836Z,100711.15
2023-01-29T07:34:19.177Z,100707.12
2023-01-29T07:36:46.299Z,100698.98
2023-01-29T07:39:13.552Z,100694.76
2023-01-29T07:41:40.760Z,100698.80
2023-01-29T07:44:15.965Z,100699.30
2023-01-29T07:46:43.359Z,100700.52
2023-01-29T07:49:11.195Z,100691.37
2023-01-29T07:51:38.344Z,100694.84
2023-01-29T07:54:05.627Z,100695.42
2023-01-29T07:56:32.743Z,100693.98
2023-01-29T07:59:00.201Z,100681.22
2023-01-29T08:01:27.446Z,100686.68
2023-01-29T08:03:54.720Z,100687.84
2023-01-29T08:06:21.816Z,100687.94
2023-01-29T08:08:49.032Z,100682.73
2023-01-29T08:11:16.214Z,100677.83
2023-01-29T08:13:43.386Z,100677.92
2023-01-29T08:16:10.690Z,100680.27
2023-01-29T08:18:38.735Z,100678.39
2023-01-29T08:21:06.091Z,100669.63
2023-01-29T08:23:33.253Z,100670.90
2023-01-29T08:26:03.230Z,100666.13
2023-01-29T08:28:30.446Z,100664.48
2023-01-29T08:30:57.886Z,100657.55
2023-01-29T08:33:38.316Z,100656.00
2023-01-29T08:36:07.290Z,100653.02
2023-01-29T08:38:36.063Z,100655.48
2023-01-29T08:41:03.602Z,100656.36
2023-01-29T08:43:30.809Z,100647.31
2023-01-29T08:45:58.103Z,100644.51
2023-01-29T08:48:25.419Z,100644.94
2023-01-29T08:50:52.585Z,100641.80
2023-01-29T08:53:24.470Z,100636.27
2023-01-29T08:55:52.539Z,100635.38
2023-01-29T08:58:20.081Z,100632.79
2023-01-29T09:00:47.309Z,100632.33
2023-01-29T09:03:14.702Z,100627.09
2023-01-29T09:05:42.097Z,100629.57
2023-01-29T09:08:10.519Z,100628.72
2023-01-29T09:10:37.748Z,100626.04
2023-01-29T09:13:05.154Z,100628.74
2023-01-29T09:15:32.435Z,100625.78
2023-01-29T09:18:04.041Z,100628.09
2023-01-29T09:20:31.444Z,100630.00
2023-01-29T09:22:59.364Z,100631.70
2023-01-29T09:25:26.462Z,100639.70
2023-01-29T09:27:54.894Z,100636.66
2023-01-29T09:30:22.247Z,100641.27
2023-01-29T09:32:53.640Z,100644.41
2023-01-29T09:35:24.670Z,100641.67
2023-01-29T09:37:52.409Z,100638.11
2023-01-29T09:40:29.146Z,100640.52
2023-01-29T09:43:09.671Z,100637.70
2023-01-29T09:45:41.258Z,100642.48
2023-01-29T09:48:12.033Z,100643.26
2023-01-29T09:50:43.740Z,100635.20
2023-01-29T09:53:13.891Z,100627.23
2023-01-29T09:55:48.511Z,100620.73
2023-01-29T09:58:25.527Z,100618.19
2023-01-29T10:01:05.226Z,100622.33
2023-01-29T10:03:41.197Z,100620.69
2023-01-29T10:06:29.159Z,100618.11
2023-01-29T10:09:11.670Z,100618.65
2023-01-29T10:11:54.463Z,100613.34
2023-01-29T10:14:38.197Z,100612.76
2023-01-29T10:17:39.579Z,100610.54
2023-01-29T10:20:25.268Z,100602.66
2023-01-29T10:23:17.225Z,100603.55
2023-01-29T10:25:47.471Z,100598.26
2023-01-29T10:28:29.923Z,100591.27
2023-01-29T10:31:06.307Z,100585.02
2023-01-29T10:33:59.488Z,100582.45
2023-01-29T10:36:36.439Z,100580.31
2023-01-29T10:39:03.715Z,100582.75
2023-01-29T10:41:37.139Z,100586.13
2023-01-29T10:44:28.021Z,100583.20
2023-01-29T10:46:58.357Z,100569.64
2023-01-29T10:50:13.623Z,100562.76
2023-01-29T10:52:50.067Z,100556.29
2023-01-29T10:55:36.959Z,100542.14
2023-01-29T10:58:25.748Z,100536.60
2023-01-29T11:00:53.004Z,100529.64
2023-01-29T11:03:30.586Z,100527.27
2023-01-29T11:06:16.233Z,100529.58
2023-01-29T11:08:51.156Z,100519.70
2023-01-29T11:11:22.459Z,100516.72
2023-01-29T11:14:24.751Z,100511.05
2023-01-29T11:16:52.176Z,100512.90
2023-01-29T11:19:36.616Z,100509.32
2023-01-29T11:22:04.529Z,100501.73
2023-01-29T11:24:31.710Z,100497.27
2023-01-29T11:27:00.297Z,100489.27
2023-01-29T11:29:30.223Z,100487.38
2023-01-29T11:31:59.765Z,100482.77
2023-01-29T11:34:33.258Z,100478.85
2023-01-29T11:37:03.496Z,100478.09
2023-01-29T11:39:33.233Z,100472.39
2023-01-29T11:42:04.145Z,100464.91
2023-01-29T11:44:40.506Z,100458.11
2023-01-29T11:47:16.539Z,100461.12
2023-01-29T11:49:49.707Z,100451.58
2023-01-29T11:52:20.985Z,100448.83
2023-01-29T11:54:55.532Z,100454.40
2023-01-29T11:57:25.670Z,100451.27
2023-01-29T11:59:55.257Z,100450.27
2023-01-29T12:02:31.745Z,100452.67
2023-01-29T12:05:15.924Z,100457.39
2023-01-29T12:07:46.352Z,100460.14
2023-01-29T12:10:36.850Z,100463.40
2023-01-29T12:13:10.014Z,100453.08
2023-01-29T12:15:39.316Z,100445.92
2023-01-29T12:18:16.769Z,100443.08
2023-01-29T12:21:05.261Z,100443.88
2023-01-29T12:23:51.072Z,100450.05
2023-01-29T12:26:39.580Z,100448.83
2023-01-29T12:29:25.722Z,100440.97
2023-01-29T12:32:17.854Z,100424.80
2023-01-29T12:34:47.412Z,100405.16
2023-01-29T12:37:25.148Z,100410.64
2023-01-29T12:39:52.520Z,100414.11
2023-01-29T12:42:24.585Z,100415.02
2023-01-29T12:45:09.069Z,100407.58
2023-01-29T12:47:40.013Z,100412.86
2023-01-29T12:50:18.161Z,100418.55
2023-01-29T12:52:52.095Z,100410.08
2023-01-29T12:55:28.103Z,100412.27
2023-01-29T12:57:58.104Z,100419.38
2023-01-29T13:00:46.875Z,100418.50
2023-01-29T13:03:17.521Z,100425.99
2023-01-29T13:05:48.631Z,100435.03
2023-01-29T13:08:37.927Z,100436.29
2023-01-29T13:11:11.354Z,100441.68
2023-01-29T13:13:54.633Z,100445.84
2023-01-29T13:16:26.279Z,100452.55
2023-01-29T13:18:58.043Z,100449.58
2023-01-29T13:21:34.020Z,100448.36
2023-01-29T13:24:11.212Z,100444.75
2023-01-29T13:26:40.714Z,100440.04
2023-01-29T13:29:25.768Z,100430.39
2023-01-29T13:31:55.904Z,100428.56
2023-01-29T13:34:28.594Z,100419.86
2023-01-29T13:36:59.262Z,100410.57
2023-01-29T13:39:44.666Z,100402.04
2023-01-29T13:42:21.329Z,100396.25
2023-01-29T13:44:51.441Z,100393.66
2023-01-29T13:47:39.345Z,100398.14
2023-01-29T13:50:08.253Z,100395.95
2023-01-29T13:52:43.982Z,100395.89
2023-01-29T13:55:13.899Z,100397.11
2023-01-29T13:57:43.979Z,100395.91
2023-01-29T14:00:33.945Z,100393.55
2023-01-29T14:03:01.144Z,100392.80
2023-01-29T14:05:29.579Z,100393.20
2023-01-29T14:08:06.749Z,100388.65
2023-01-29T14:10:35.271Z,100377.34
2023-01-29T14:13:11.844Z,100371.33
2023-01-29T14:15:40.189Z,100371.83
2023-01-29T14:18:25.335Z,100369.17
2023-01-29T14:21:28.479Z,100365.59
2023-01-29T14:24:08.515Z,100364.32
2023-01-29T14:26:38.806Z,100364.98
2023-01-29T14:29:34.393Z,100365.65
2023-01-29T14:32:25.063Z,100361.80
2023-01-29T14:34:55.258Z,100369.20
2023-01-29T14:37:26.556Z,100367.73
2023-01-29T14:39:57.822Z,100373.66
2023-01-29T14:42:27.509Z,100372.55
2023-01-29T14:44:54.688Z,100371.69
2023-01-29T14:47:27.497Z,100366.45
2023-01-29T14:49:56.333Z,100359.88
2023-01-29T14:52:42.323Z,100355.74
2023-01-29T14:55:19.619Z,100351.06
2023-01-29T14:57:48.941Z,100348.47
2023-01-29T15:00:24.283Z,100346.38
2023-01-29T15:03:01.336Z,100350.36
2023-01-29T15:05:35.660Z,100354.23
2023-01-29T15:08:42.906Z,100358.57
2023-01-29T15:11:36.504Z,100357.59
2023-01-29T15:14:19.017Z,100360.45
2023-01-29T15:17:06.136Z,100356.77
2023-01-29T15:19:44.993Z,100357.17
2023-01-29T15:22:18.087Z,100362.13
2023-01-29T15:24:47.060Z,100355.03
2023-01-29T15:27:17.330Z,100358.48
2023-01-29T15:29:50.813Z,100365.64
2023-01-29T15:32:29.109Z,100369.33
2023-01-29T15:34:58.761Z,100368.52
2023-01-29T15:37:28.571Z,100370.54
2023-01-29T15:39:56.840Z,100376.11
2023-01-29T15:42:25.938Z,100377.89
2023-01-29T15:44:56.858Z,100370.04
2023-01-29T15:47:31.322Z,100368.05
2023-01-29T15:49:58.575Z,100368.94
2023-01-29T15:52:35.271Z,100362.27
2023-01-29T15:55:06.223Z,100350.40
2023-01-29T15:57:40.896Z,100345.20
2023-01-29T16:00:21.327Z,100341.52
2023-01-29T16:02:48.500Z,100341.71
2023-01-29T16:05:19.668Z,100338.79
2023-01-29T16:07:47.540Z,100335.89
2023-01-29T16:10:21.408Z,100336.35
2023-01-29T16:12:51.758Z,100332.66
2023-01-29T16:15:34.828Z,100327.05
2023-01-29T16:18:17.055Z,100317.36
2023-01-29T16:20:50.399Z,100309.74
2023-01-29T16:23:21.240Z,100307.82
2023-01-29T16:25:49.785Z,100300.95
2023-01-29T16:28:18.010Z,100291.34
2023-01-29T16:30:45.489Z,100287.16
2023-01-29T16:33:17.236Z,100275.76
2023-01-29T16:35:52.026Z,100281.31
2023-01-29T16:38:30.943Z,100283.10
2023-01-29T16:41:28.923Z,100276.34
2023-01-29T16:44:04.770Z,100272.60
2023-01-29T16:46:34.986Z,100271.10
2023-01-29T16:49:02.814Z,100268.99
2023-01-29T16:51:47.931Z,100270.39
2023-01-29T16:54:18.322Z,100273.23
2023-01-29T16:56:52.138Z,100273.13
2023-01-29T16:59:26.966Z,100270.64
2023-01-29T17:01:57.272Z,100265.75
2023-01-29T17:04:24.445Z,100265.08
2023-01-29T17:06:57.816Z,100265.38
2023-01-29T17:09:29.641Z,100263.37
2023-01-29T17:12:02.717Z,100258.11
2023-01-29T17:14:32.352Z,100253.25
2023-01-29T17:17:05.564Z,100251.28
2023-01-29T17:19:32.817Z,100248.08
2023-01-29T17:22:00.137Z,100247.77
2023-01-29T17:24:27.318Z,100248.48
2023-01-29T17:26:54.615Z,100247.96
2023-01-29T17:29:27.592Z,100248.38
2023-01-29T17:31:56.149Z,100243.67
2023-01-29T17:34:24.326Z,100240.14
2023-01-29T17:36:51.628Z,100240.34
2023-01-29T17:39:21.262Z,100243.59
2023-01-29T17:41:56.204Z,100243.50
2023-01-29T17:44:26.274Z,100238.66
2023-01-29T17:46:53.931Z,100234.50
2023-01-29T17:49:28.150Z,100234.77
2023-01-29T17:51:56.708Z,100239.54
2023-01-29T17:54:24.515Z,100230.02
2023-01-29T17:56:53.051Z,100236.03
2023-01-29T17:59:26.182Z,100234.72
2023-01-29T18:01:53.746Z,100235.30
2023-01-29T18:04:21.084Z,100234.61
2023-01-29T18:06:50.537Z,100231.52
2023-01-29T18:09:22.400Z,100225.77
2023-01-29T18:11:50.899Z,100221.61
2023-01-29T18:14:18.341Z,100217.96
2023-01-29T18:16:45.649Z,100213.69
2023-01-29T18:19:16.545Z,100211.79
2023-01-29T18:21:43.780Z,100209.86
2023-01-29T18:24:10.986Z,100206.70
2023-01-29T18:26:38.359Z,100200.48
2023-01-29T18:29:05.931Z,100198.09
2023-01-29T18:31:33.184Z,100198.13
2023-01-29T18:34:00.489Z,100195.06
2023-01-29T18:36:27.686Z,100190.05
2023-01-29T18:38:56.301Z,100186.92
2023-01-29T18:41:23.921Z,100179.68
2023-01-29T18:43:54.465Z,100174.39
2023-01-29T18:46:24.330Z,100168.53
2023-01-29T18:48:51.572Z,100168.48
2023-01-29T18:51:18.785Z,100160.58
2023-01-29T18:53:50.026Z,100152.58
2023-01-29T18:56:17.282Z,100150.39
2023-01-29T18:58:49.815Z,100144.48
2023-01-29T19:01:19.528Z,100135.40
2023-01-29T19:03:46.798Z,100132.23
2023-01-29T19:06:13.994Z,100129.45
2023-01-29T19:08:42.926Z,100129.66
2023-01-29T19:11:12.663Z,100123.73
2023-01-29T19:13:41.007Z,100121.23
2023-01-29T19:16:10.003Z,100114.85
2023-01-29T19:18:37.097Z,100113.42
2023-01-29T19:21:10.573Z,100109.39
2023-01-29T19:23:38.577Z,100104.31
2023-01-29T19:26:06.318Z,100100.95
2023-01-29T19:28:33.905Z,100096.16
2023-01-29T19:31:01.713Z,100094.39
2023-01-29T19:33:29.346Z,100092.20
2023-01-29T19:36:00.078Z,100084.52
2023-01-29T19:38:27.908Z,100080.04
2023-01-29T19:40:58.040Z,100080.88
2023-01-29T19:43:29.005Z,100081.71
2023-01-29T19:46:01.196Z,100075.44
2023-01-29T19:48:28.977Z,100077.05
2023-01-29T19:50:58.386Z,100072.20
2023-01-29T19:53:27.617Z,100066.74
2023-01-29T19:56:08.748Z,100066.23
2023-01-29T19:58:36.927Z,100066.34
2023-01-29T20:01:07.951Z,100064.81
2023-01-29T20:03:35.139Z,100062.55
2023-01-29T20:06:04.242Z,100058.45
2023-01-29T20:08:32.532Z,100053.28
2023-01-29T20:11:00.193Z,100051.73
2023-01-29T20:13:27.685Z,100044.83
2023-01-29T20:15:55.867Z,100042.40
2023-01-29T20:18:23.123Z,100038.36
2023-01-29T20:20:53.163Z,100031.46
2023-01-29T20:23:37.826Z,100031.50
2023-01-29T20:26:12.556Z,100023.48
2023-01-29T20:28:40.139Z,100018.66
2023-01-29T20:31:09.103Z,100007.33
2023-01-29T20:33:39.209Z,100001.54
2023-01-29T20:36:10.480Z,99995.52
2023-01-29T20:38:37.898Z,99992.45
2023-01-29T20:41:06.773Z,99986.87
2023-01-29T20:43:34.635Z,99986.33
2023-01-29T20:46:02.473Z,99984.15
2023-01-29T20:48:30.581Z,99983.24
2023-01-29T20:51:04.533Z,99982.59
2023-01-29T20:53:31.754Z,99980.55
2023-01-29T20:55:59.066Z,99977.22
2023-01-29T20:58:26.468Z,99976.22
2023-01-29T21:00:53.613Z,99968.95
2023-01-29T21:03:20.875Z,99962.57
2023-01-29T21:05:48.096Z,99957.85
2023-01-29T21:08:15.252Z,99953.20
2023-01-29T21:10:43.356Z,99944.95
2023-01-29T21:13:11.248Z,99934.75
2023-01-29T21:15:38.562Z,99930.34
2023-01-29T21:18:08.903Z,99919.31
2023-01-29T21:20:36.528Z,99907.66
2023-01-29T21:23:06.833Z,99902.80
2023-01-29T21:25:34.424Z,99893.81
2023-01-29T21:28:03.823Z,99889.98
2023-01-29T21:30:31.049Z,99884.14
2023-01-29T21:32:58.250Z,99882.72
2023-01-29T21:35:26.295Z,99878.25
2023-01-29T21:37:53.545Z,99874.30
2023-01-29T21:40:21.360Z,99874.34
2023-01-29T21:43:07.366Z,99874.04
2023-01-29T21:45:35.727Z,99868.61
2023-01-29T21:48:02.971Z,99859.85
2023-01-29T21:50:30.290Z,99852.25
2023-01-29T21:52:57.418Z,99845.08
2023-01-29T21:55:24.594Z,99839.19
2023-01-29T21:57:51.882Z,99835.93
2023-01-29T22:00:19.815Z,99838.54
2023-01-29T22:02:47.240Z,99829.95
2023-01-29T22:05:19.433Z,99824.98
2023-01-29T22:07:48.575Z,99823.67
2023-01-29T22:10:19.755Z,99822.04
2023-01-29T22:12:48.178Z,99819.88
2023-01-29T22:15:16.269Z,99819.78
2023-01-29T22:17:43.955Z,99811.77
2023-01-29T22:20:16.802Z,99814.00
2023-01-29T22:22:44.196Z,99801.93
2023-01-29T22:25:20.111Z,99799.91
2023-01-29T22:27:47.381Z,99794.00
2023-01-29T22:30:14.774Z,99792.61
2023-01-29T22:32:42.300Z,99787.17
2023-01-29T22:35:10.650Z,99783.08
2023-01-29T22:37:37.820Z,99777.42
2023-01-29T22:40:05.653Z,99778.13
2023-01-29T22:42:32.788Z,99776.15
2023-01-29T22:44:59.986Z,99771.50
2023-01-29T22:47:27.187Z,99769.06
2023-01-29T22:49:54.492Z,99764.30
2023-01-29T22:52:22.478Z,99759.89
2023-01-29T22:54:51.568Z,99752.64
2023-01-29T22:57:19.812Z,99745.11
2023-01-29T22:59:46.999Z,99737.96
2023-01-29T23:02:14.146Z,99729.43
2023-01-29T23:04:41.383Z,99727.65
2023-01-29T23:07:08.594Z,99718.09
2023-01-29T23:09:35.729Z,99719.59
2023-01-29T23:12:02.873Z,99710.66
2023-01-29T23:14:29.991Z,99707.15
2023-01-29T23:16:57.361Z,99702.95
2023-01-29T23:19:24.685Z,99694.95
2023-01-29T23:21:51.783Z,99698.94
2023-01-29T23:24:19.067Z,99687.98
2023-01-29T23:27:04.689Z,99685.34
2023-01-29T23:29:31.827Z,99680.38
2023-01-29T23:31:58.934Z,99675.11
2023-01-29T23:34:26.056Z,99675.29
2023-01-29T23:36:53.186Z,99665.95
2023-01-29T23:39:20.725Z,99662.16
2023-01-29T23:41:47.849Z,99654.17
2023-01-29T23:44:15.034Z,99640.55
2023-01-29T23:46:42.287Z,99639.21
2023-01-29T23:49:09.401Z,99628.56
2023-01-29T23:51:36.590Z,99623.20
2023-01-29T23:54:04.353Z,99615.20
2023-01-29T23:56:31.627Z,99609.08
2023-01-29T23:58:58.790Z,99600.20
